Time;durP1;ratioP1;P1;durP2;ratioP2;P2;SDS_P1;SDS_P2;PMS_P1;PMS_P2;Temp;Humidity;BMP_temperature;BMP_pressure;BME280_temperature;BME280_humidity;BME280_pressure;Samples;Min_cycle;Max_cycle;Signal;HPM_P1;HPM_P2
2023/06/21 00:02:04;;;;;;;;;;;;;;;20.48;63.92;99958.08;130169;1298;22542;-84
2023/06/21 00:05:04;;;;;;;;;;;;;;;20.47;63.95;99959.05;130110;1291;22805;-88
2023/06/21 00:08:05;;;;;;;;;;;;;;;20.49;64.08;99956.60;130079;1295;22559;-89
2023/06/21 00:11:05;;;;;;;;;;;;;;;20.50;64.13;99949.29;130049;1295;22542;-85
2023/06/21 00:14:05;;;;;;;;;;;;;;;20.48;64.21;99953.89;130005;1301;25973;-87
2023/06/21 00:17:06;;;;;;;;;;;;;;;20.49;64.25;99956.69;130068;1298;22534;-87
2023/06/21 00:20:09;;;;;;;;;;;;;;;20.42;64.36;99958.55;130199;1298;22524;-86
2023/06/21 00:23:11;;;;;;;;;;;;;;;20.34;64.56;99953.85;130247;1298;22570;-85
2023/06/21 00:26:11;;;;;;;;;;;;;;;20.30;64.68;99952.30;130071;1298;22540;-83
2023/06/21 00:29:12;;;;;;;;;;;;;;;20.26;64.86;99946.54;130081;1298;22801;-86
2023/06/21 00:32:12;;;;;;;;;;;;;;;20.23;65.00;99943.77;130045;1298;23439;-86
2023/06/21 00:35:14;;;;;;;;;;;;;;;20.17;65.13;99941.32;130225;1288;22584;-89
2023/06/21 00:38:15;;;;;;;;;;;;;;;20.11;65.27;99942.86;130050;1298;22775;-86
2023/06/21 00:41:15;;;;;;;;;;;;;;;20.08;65.49;99940.74;130046;1298;22530;-87
2023/06/21 00:44:15;;;;;;;;;;;;;;;20.07;65.72;99937.74;130072;1295;24066;-86
2023/06/21 00:47:18;;;;;;;;;;;;;;;20.06;65.73;99935.62;129827;1298;25443;-88
2023/06/21 00:50:18;;;;;;;;;;;;;;;20.04;65.82;99942.73;130307;1295;24376;-86
2023/06/21 00:53:21;;;;;;;;;;;;;;;20.00;65.88;99944.95;130051;1298;24410;-85
2023/06/21 00:56:21;;;;;;;;;;;;;;;19.94;66.02;99941.48;130041;1298;22552;-86
2023/06/21 00:59:23;;;;;;;;;;;;;;;19.89;66.19;99941.91;130121;1298;22548;-87
2023/06/21 01:02:24;;;;;;;;;;;;;;;19.85;66.28;99947.39;130117;1294;22551;-88
2023/06/21 01:05:25;;;;;;;;;;;;;;;19.84;66.39;99945.27;130036;1297;26513;-86
2023/06/21 01:08:31;;;;;;;;;;;;;;;19.84;66.48;99950.60;130079;1298;22541;-84
2023/06/21 01:11:41;;;;;;;;;;;;;;;19.83;66.51;99951.27;130072;1298;22547;-88
2023/06/21 01:14:48;;;;;;;;;;;;;;;19.80;66.58;99947.69;130132;1298;22558;-85
2023/06/21 01:17:51;;;;;;;;;;;;;;;19.75;66.78;99943.00;130086;1298;22570;-88
2023/06/21 01:20:57;;;;;;;;;;;;;;;19.67;66.93;99939.67;130114;1293;22962;-85
2023/06/21 01:23:57;;;;;;;;;;;;;;;19.63;67.21;99943.39;130288;1299;24410;-84
2023/06/21 01:27:18;;;;;;;;;;;;;;;19.63;67.28;99943.05;130060;1297;22553;-85
2023/06/21 01:30:19;;;;;;;;;;;;;;;19.62;67.34;99945.67;129874;1298;22535;-85
2023/06/21 01:33:19;;;;;;;;;;;;;;;19.59;67.52;99946.30;130064;1296;22604;-84
2023/06/21 01:36:21;;;;;;;;;;;;;;;19.59;67.61;99944.83;130276;1299;23892;-88
2023/06/21 01:39:25;;;;;;;;;;;;;;;19.59;67.72;99947.27;130032;1301;24270;-86
2023/06/21 01:42:26;;;;;;;;;;;;;;;19.53;67.82;99938.21;130058;1298;22564;-85
2023/06/21 01:45:26;;;;;;;;;;;;;;;19.39;68.02;99931.83;130115;1298;22610;-86
2023/06/21 01:48:29;;;;;;;;;;;;;;;19.31;68.26;99933.98;130050;1298;22559;-87
2023/06/21 01:51:30;;;;;;;;;;;;;;;19.25;68.49;99925.83;130153;1297;26651;-85
2023/06/21 01:54:33;;;;;;;;;;;;;;;19.16;68.71;99922.04;130157;1296;24254;-89
2023/06/21 01:57:37;;;;;;;;;;;;;;;19.13;68.90;99923.16;130099;1293;25524;-88
2023/06/21 02:00:37;;;;;;;;;;;;;;;19.14;68.87;99927.41;129813;1298;22612;-88
2023/06/21 02:03:41;;;;;;;;;;;;;;;19.11;68.90;99928.35;130067;1299;25412;-85
2023/06/21 02:06:42;;;;;;;;;;;;;;;19.05;68.97;99928.73;130088;1299;22590;-87
2023/06/21 02:09:43;;;;;;;;;;;;;;;19.02;69.19;99929.55;129931;1292;25370;-86
2023/06/21 02:12:49;;;;;;;;;;;;;;;18.99;69.47;99932.05;129649;1295;25303;-89
2023/06/21 02:15:52;;;;;;;;;;;;;;;19.00;69.50;99936.48;130080;1295;22550;-86
2023/06/21 02:18:52;;;;;;;;;;;;;;;19.03;69.57;99940.05;129862;1292;22554;-85
2023/06/21 02:21:53;;;;;;;;;;;;;;;19.05;69.64;99946.94;130056;1299;22542;-86
2023/06/21 02:24:53;;;;;;;;;;;;;;;19.05;69.72;99953.09;130017;1291;24272;-86
2023/06/21 02:27:54;;;;;;;;;;;;;;;19.05;69.66;99955.13;130095;1298;22596;-86
2023/06/21 02:30:54;;;;;;;;;;;;;;;18.99;69.83;99947.96;130025;1301;22633;-85
2023/06/21 02:33:54;;;;;;;;;;;;;;;18.88;70.07;99947.43;130018;1298;22549;-86
2023/06/21 02:36:55;;;;;;;;;;;;;;;18.83;70.30;99943.63;129993;1298;22790;-88
2023/06/21 02:39:56;;;;;;;;;;;;;;;18.75;70.52;99945.71;130186;1295;25359;-86
2023/06/21 02:42:56;;;;;;;;;;;;;;;18.67;70.70;99945.98;130173;1298;24293;-88
2023/06/21 02:45:57;;;;;;;;;;;;;;;18.63;70.83;99942.44;130211;1291;24294;-85
2023/06/21 02:48:59;;;;;;;;;;;;;;;18.57;70.92;99942.38;130164;1298;22671;-85
2023/06/21 02:52:00;;;;;;;;;;;;;;;18.50;71.05;99942.73;129982;1298;22560;-88
2023/06/21 02:55:01;;;;;;;;;;;;;;;18.45;71.27;99948.98;130285;1298;24286;-87
2023/06/21 02:58:01;;;;;;;;;;;;;;;18.40;71.53;99949.22;130209;1298;25442;-87
2023/06/21 03:01:02;;;;;;;;;;;;;;;18.34;71.77;99949.59;129818;1299;22551;-90
2023/06/21 03:04:04;;;;;;;;;;;;;;;18.36;71.85;99954.69;129952;1295;23910;-83
2023/06/21 03:07:05;;;;;;;;;;;;;;;18.40;71.96;99954.10;129868;1299;22549;-86
2023/06/21 03:10:05;;;;;;;;;;;;;;;18.43;72.24;99955.47;129983;1298;24650;-87
2023/06/21 03:13:06;;;;;;;;;;;;;;;18.49;72.20;99957.88;129876;1300;22548;-84
2023/06/21 03:16:07;;;;;;;;;;;;;;;18.54;72.38;99958.33;129725;1294;24603;-85
2023/06/21 03:19:08;;;;;;;;;;;;;;;18.60;72.32;99964.34;129865;1295;22536;-85
2023/06/21 03:22:12;;;;;;;;;;;;;;;18.70;72.33;99961.92;129734;1295;22551;-87
2023/06/21 03:25:13;;;;;;;;;;;;;;;18.78;72.35;99958.39;130150;1299;22534;-86
2023/06/21 03:28:15;;;;;;;;;;;;;;;18.88;72.18;99968.19;130049;1301;22596;-85
2023/06/21 03:31:15;;;;;;;;;;;;;;;18.98;72.03;99973.33;129938;1300;22550;-88
2023/06/21 03:34:16;;;;;;;;;;;;;;;19.04;72.05;99973.00;129750;1299;22576;-86
2023/06/21 03:37:16;;;;;;;;;;;;;;;19.10;71.96;99975.42;129717;1301;24266;-85
2023/06/21 03:40:17;;;;;;;;;;;;;;;19.15;71.99;99971.80;129602;1299;23685;-87
2023/06/21 03:43:17;;;;;;;;;;;;;;;19.18;71.84;99974.04;129558;1303;22534;-86
2023/06/21 03:46:19;;;;;;;;;;;;;;;19.22;71.84;99981.25;129988;1297;22826;-88
2023/06/21 03:49:22;;;;;;;;;;;;;;;19.31;71.79;99977.17;130137;1288;22544;-85
2023/06/21 03:52:23;;;;;;;;;;;;;;;19.37;71.77;99981.32;129989;1302;22670;-88
2023/06/21 03:55:25;;;;;;;;;;;;;;;19.44;71.82;99982.95;129949;1294;22659;-84
2023/06/21 03:58:26;;;;;;;;;;;;;;;19.51;71.84;99983.77;130231;1298;25526;-88
2023/06/21 04:01:26;;;;;;;;;;;;;;;19.57;71.71;99981.37;130040;1298;22601;-88
2023/06/21 04:04:27;;;;;;;;;;;;;;;19.59;71.69;99981.00;129911;1299;24298;-87
2023/06/21 04:07:27;;;;;;;;;;;;;;;19.62;71.72;99982.53;130025;1298;24265;-87
2023/06/21 04:10:28;;;;;;;;;;;;;;;19.67;71.70;99976.06;130073;1296;25501;-87
2023/06/21 04:13:31;;;;;;;;;;;;;;;19.74;71.70;99976.02;129934;1299;24332;-85
2023/06/21 04:16:31;;;;;;;;;;;;;;;19.79;71.74;99968.73;129980;1298;22549;-86
2023/06/21 04:19:33;;;;;;;;;;;;;;;19.84;71.84;99959.49;130177;1298;22806;-86
2023/06/21 04:22:34;;;;;;;;;;;;;;;19.88;71.88;99956.79;130086;1298;22615;-83
2023/06/21 04:25:34;;;;;;;;;;;;;;;19.93;71.91;99955.67;129918;1299;22547;-87
2023/06/21 04:28:36;;;;;;;;;;;;;;;19.94;71.94;99947.58;130104;1298;22561;-86
2023/06/21 04:31:39;;;;;;;;;;;;;;;19.97;71.96;99944.39;130115;1300;22560;-85
2023/06/21 04:34:43;;;;;;;;;;;;;;;20.00;71.86;99943.67;130042;1298;23800;-87
2023/06/21 04:37:44;;;;;;;;;;;;;;;20.08;71.81;99946.40;130187;1298;22541;-85
2023/06/21 04:40:45;;;;;;;;;;;;;;;20.16;71.86;99948.91;130142;1291;24244;-87
2023/06/21 04:43:45;;;;;;;;;;;;;;;20.23;71.78;99949.20;129913;1293;24254;-88
2023/06/21 04:46:46;;;;;;;;;;;;;;;20.29;71.71;99945.52;130068;1296;24450;-85
2023/06/21 04:49:46;;;;;;;;;;;;;;;20.32;71.59;99942.41;129757;1289;22541;-88
2023/06/21 04:52:47;;;;;;;;;;;;;;;20.37;71.53;99948.56;129981;1297;22822;-85
2023/06/21 04:55:48;;;;;;;;;;;;;;;20.46;71.65;99949.15;130899;1291;23872;-87
2023/06/21 04:58:48;;;;;;;;;;;;;;;20.54;71.46;99957.32;130249;1294;25514;-87
2023/06/21 05:01:49;;;;;;;;;;;;;;;20.64;71.46;99953.17;130844;1299;24913;-88
2023/06/21 05:04:49;;;;;;;;;;;;;;;20.72;71.31;99949.15;130085;1294;22680;-88
2023/06/21 05:07:50;;;;;;;;;;;;;;;20.83;71.17;99948.98;130065;1297;22535;-83
2023/06/21 05:10:50;;;;;;;;;;;;;;;20.93;71.08;99946.24;130152;1292;22551;-82
2023/06/21 05:13:51;;;;;;;;;;;;;;;21.04;71.25;99944.27;130233;1291;22551;-83
2023/06/21 05:16:51;;;;;;;;;;;;;;;21.12;71.06;99945.73;130372;1294;22583;-83
2023/06/21 05:19:52;;;;;;;;;;;;;;;21.15;70.97;99941.75;130667;1299;22607;-82
2023/06/21 05:22:54;;;;;;;;;;;;;;;21.19;70.91;99943.82;130447;1291;23908;-83
2023/06/21 05:25:54;;;;;;;;;;;;;;;21.25;70.94;99946.69;130554;1298;22672;-81
2023/06/21 05:28:55;;;;;;;;;;;;;;;21.34;70.92;99948.65;130170;1295;24283;-83
2023/06/21 05:31:55;;;;;;;;;;;;;;;21.46;70.79;99952.73;130179;1299;23727;-82
2023/06/21 05:34:56;;;;;;;;;;;;;;;21.57;70.62;99954.96;130192;1291;22607;-85
2023/06/21 05:37:56;;;;;;;;;;;;;;;21.61;70.45;99957.58;130074;1298;24397;-84
2023/06/21 05:40:57;;;;;;;;;;;;;;;21.54;70.10;99961.02;130050;1292;25766;-84
2023/06/21 05:43:57;;;;;;;;;;;;;;;21.58;70.34;99967.58;130058;1291;22802;-83
2023/06/21 05:46:58;;;;;;;;;;;;;;;21.70;70.24;99977.23;130070;1292;173013;-83
2023/06/21 05:49:58;;;;;;;;;;;;;;;21.78;70.06;99988.71;130182;1291;25265;-83
2023/06/21 05:52:59;;;;;;;;;;;;;;;21.86;70.14;100012.50;130135;1291;22642;-83
2023/06/21 05:56:00;;;;;;;;;;;;;;;21.89;70.21;100037.95;130058;1291;25545;-82
2023/06/21 05:59:00;;;;;;;;;;;;;;;21.85;70.06;100018.69;130060;1292;24409;-84
2023/06/21 06:02:01;;;;;;;;;;;;;;;21.79;69.86;100021.83;130199;1294;25319;-85
2023/06/21 06:05:02;;;;;;;;;;;;;;;21.76;70.09;100035.48;130144;1291;24292;-84
2023/06/21 06:08:02;;;;;;;;;;;;;;;21.73;70.40;100043.50;130019;1291;24304;-83
2023/06/21 06:11:03;;;;;;;;;;;;;;;21.70;70.49;100052.35;130104;1298;24400;-84
2023/06/21 06:14:03;;;;;;;;;;;;;;;21.69;70.55;100055.52;130231;1298;23816;-83
2023/06/21 06:17:04;;;;;;;;;;;;;;;21.68;70.72;100047.06;130222;1291;22568;-83
2023/06/21 06:20:06;;;;;;;;;;;;;;;21.69;70.78;100045.91;130360;1293;22694;-83
2023/06/21 06:23:09;;;;;;;;;;;;;;;21.70;70.75;100044.25;130069;1289;22591;-82
2023/06/21 06:26:09;;;;;;;;;;;;;;;21.71;70.97;100041.41;130089;1291;22615;-83
2023/06/21 06:29:09;;;;;;;;;;;;;;;21.69;70.84;100034.63;130086;1298;22540;-84
2023/06/21 06:32:10;;;;;;;;;;;;;;;21.67;70.73;100039.06;130148;1298;24291;-84
2023/06/21 06:35:10;;;;;;;;;;;;;;;21.64;70.84;100041.16;130075;1298;24441;-84
2023/06/21 06:38:11;;;;;;;;;;;;;;;21.67;70.89;100045.54;129983;1298;22542;-84
2023/06/21 06:41:11;;;;;;;;;;;;;;;21.70;70.96;100045.76;130024;1298;22541;-83
2023/06/21 06:44:12;;;;;;;;;;;;;;;21.72;70.93;100042.06;130134;1291;22664;-85
2023/06/21 06:47:12;;;;;;;;;;;;;;;21.72;71.29;100046.39;130556;1291;24310;-80
2023/06/21 06:50:13;;;;;;;;;;;;;;;21.70;71.11;100041.77;130105;1289;22749;-84
2023/06/21 06:53:13;;;;;;;;;;;;;;;21.66;71.54;100040.94;130104;1295;25292;-82
2023/06/21 07:00:24;;;;;;;;;;;;;;;21.54;72.14;100023.81;130385;1291;22685;-83
2023/06/21 07:03:25;;;;;;;;;;;;;;;21.48;72.30;100014.47;129764;1297;22507;-84
2023/06/21 07:06:25;;;;;;;;;;;;;;;21.41;72.62;100018.59;130118;1292;22669;-83
2023/06/21 07:09:26;;;;;;;;;;;;;;;21.38;73.17;100026.53;129876;1295;22541;-84
2023/06/21 07:12:26;;;;;;;;;;;;;;;21.37;73.65;100034.39;130084;1291;23346;-82
2023/06/21 07:15:27;;;;;;;;;;;;;;;21.39;73.83;100047.11;129937;1294;22562;-83
2023/06/21 07:18:27;;;;;;;;;;;;;;;21.43;74.31;100059.45;129955;1298;22622;-83
2023/06/21 07:21:27;;;;;;;;;;;;;;;21.52;74.77;100062.42;129933;1294;24720;-82
2023/06/21 07:24:28;;;;;;;;;;;;;;;21.62;75.02;100064.39;129982;1292;22556;-81
2023/06/21 07:27:29;;;;;;;;;;;;;;;21.68;74.88;100066.08;129974;1291;22541;-85
2023/06/21 07:30:29;;;;;;;;;;;;;;;21.74;74.80;100058.89;129985;1298;22542;-87
2023/06/21 07:33:30;;;;;;;;;;;;;;;21.82;75.17;100065.04;129999;1297;22591;-86
2023/06/21 07:36:30;;;;;;;;;;;;;;;21.93;75.29;100069.02;129777;1299;22540;-84
2023/06/21 07:39:31;;;;;;;;;;;;;;;21.98;75.42;100069.91;129741;1292;26537;-86
2023/06/21 07:42:31;;;;;;;;;;;;;;;22.02;75.62;100085.11;130054;1298;25369;-85
2023/06/21 07:45:32;;;;;;;;;;;;;;;22.07;75.64;100106.23;129955;1298;22550;-83
2023/06/21 07:48:34;;;;;;;;;;;;;;;22.07;75.80;100119.84;130030;1299;22565;-85
2023/06/21 07:51:34;;;;;;;;;;;;;;;22.09;75.99;100136.58;129994;1300;22653;-85
2023/06/21 07:54:35;;;;;;;;;;;;;;;22.02;76.04;100136.40;129875;1297;22585;-85
2023/06/21 07:57:36;;;;;;;;;;;;;;;21.92;76.03;100132.80;130001;1301;25291;-86
2023/06/21 08:00:37;;;;;;;;;;;;;;;21.69;75.91;100125.45;130251;1298;22547;-87
2023/06/21 08:03:39;;;;;;;;;;;;;;;21.59;76.43;100140.95;130090;1294;22626;-86
2023/06/21 08:06:39;;;;;;;;;;;;;;;21.58;76.58;100143.80;130059;1292;22663;-85
2023/06/21 08:09:40;;;;;;;;;;;;;;;21.57;77.17;100158.40;130203;1291;22664;-85
2023/06/21 08:12:41;;;;;;;;;;;;;;;21.53;77.56;100160.96;129684;1294;25448;-83
2023/06/21 08:15:41;;;;;;;;;;;;;;;21.47;77.90;100155.18;130203;1298;22588;-83
2023/06/21 08:18:43;;;;;;;;;;;;;;;21.35;77.79;100140.33;130557;1296;22633;-84
2023/06/21 08:21:44;;;;;;;;;;;;;;;21.22;78.21;100128.65;130643;1288;23273;-84
2023/06/21 08:24:44;;;;;;;;;;;;;;;21.06;78.75;100116.80;130421;1291;22550;-86
2023/06/21 08:27:45;;;;;;;;;;;;;;;20.87;79.46;100110.94;130174;1294;25354;-84
2023/06/21 08:30:45;;;;;;;;;;;;;;;20.75;80.39;100101.15;130240;1291;25380;-83
2023/06/21 08:33:46;;;;;;;;;;;;;;;20.66;81.09;100103.17;130161;1294;22648;-84
2023/06/21 08:36:46;;;;;;;;;;;;;;;20.73;81.43;100116.64;130073;1291;24452;-85
2023/06/21 08:39:47;;;;;;;;;;;;;;;21.00;81.90;100120.98;130058;1297;24369;-84
2023/06/21 08:42:47;;;;;;;;;;;;;;;21.26;81.72;100132.18;130261;1291;24069;-85
2023/06/21 08:45:48;;;;;;;;;;;;;;;21.47;81.70;100128.83;130058;1291;22557;-82
2023/06/21 08:48:50;;;;;;;;;;;;;;;21.72;81.81;100126.27;130064;1288;26518;-82
2023/06/21 08:51:53;;;;;;;;;;;;;;;22.02;81.83;100125.41;130206;1298;22618;-83
2023/06/21 08:55:12;;;;;;;;;;;;;;;22.45;82.08;100136.05;130150;1291;25450;-86
2023/06/21 08:58:21;;;;;;;;;;;;;;;23.23;82.37;100128.77;130261;1294;26503;-85
2023/06/21 09:01:22;;;;;;;;;;;;;;;24.10;81.56;100124.83;130041;1294;22530;-84
2023/06/21 09:04:25;;;;;;;;;;;;;;;24.69;80.30;100121.80;129877;1298;22560;-82
2023/06/21 09:07:26;;;;;;;;;;;;;;;25.37;78.85;100122.98;130072;1298;22656;-85
2023/06/21 09:10:28;;;;;;;;;;;;;;;25.96;77.55;100123.12;130189;1292;25360;-83
2023/06/21 09:13:31;;;;;;;;;;;;;;;26.57;76.70;100127.60;130071;1298;26508;-83
2023/06/21 09:16:32;;;;;;;;;;;;;;;27.09;74.70;100125.34;130089;1291;23256;-81
2023/06/21 09:19:33;;;;;;;;;;;;;;;27.47;73.33;100126.26;130134;1298;22531;-85
2023/06/21 09:22:33;;;;;;;;;;;;;;;27.72;71.79;100132.04;130113;1299;23324;-85
2023/06/21 09:25:34;;;;;;;;;;;;;;;27.79;70.70;100139.60;130121;1298;22540;-84
2023/06/21 09:28:35;;;;;;;;;;;;;;;27.87;69.80;100141.58;130128;1294;22535;-81
2023/06/21 09:31:35;;;;;;;;;;;;;;;27.86;68.48;100145.84;129919;1295;22531;-82
2023/06/21 09:34:36;;;;;;;;;;;;;;;28.19;67.58;100145.80;130028;1291;24786;-85
2023/06/21 09:37:38;;;;;;;;;;;;;;;28.38;66.57;100147.27;130019;1295;24238;-83
2023/06/21 09:40:42;;;;;;;;;;;;;;;28.71;65.48;100149.47;130070;1291;22621;-81
2023/06/21 09:43:43;;;;;;;;;;;;;;;29.11;65.16;100153.86;130027;1295;22533;-85
2023/06/21 09:46:46;;;;;;;;;;;;;;;29.50;64.04;100155.56;129808;1298;23033;-84
2023/06/21 09:49:47;;;;;;;;;;;;;;;29.88;63.33;100149.80;130087;1298;22575;-85
2023/06/21 09:52:48;;;;;;;;;;;;;;;30.21;62.15;100146.36;130079;1299;22546;-85
2023/06/21 09:55:48;;;;;;;;;;;;;;;30.54;61.17;100149.48;129916;1294;22539;-85
2023/06/21 09:58:50;;;;;;;;;;;;;;;30.57;59.65;100141.27;130113;1298;23438;-84
2023/06/21 10:01:53;;;;;;;;;;;;;;;30.55;59.11;100139.05;130122;1295;24260;-83
2023/06/21 10:04:56;;;;;;;;;;;;;;;30.65;58.47;100137.36;130037;1294;22541;-83
2023/06/21 10:07:57;;;;;;;;;;;;;;;30.71;57.13;100144.54;129595;1298;24377;-85
2023/06/21 10:10:57;;;;;;;;;;;;;;;30.73;57.02;100143.84;130107;1291;22778;-82
2023/06/21 10:13:59;;;;;;;;;;;;;;;30.78;56.90;100142.17;130068;1298;24448;-84
2023/06/21 10:17:00;;;;;;;;;;;;;;;30.85;56.47;100145.69;129998;1297;26526;-84
2023/06/21 10:20:02;;;;;;;;;;;;;;;30.95;56.17;100146.05;130063;1298;22662;-86
2023/06/21 10:23:04;;;;;;;;;;;;;;;31.11;55.91;100144.61;129986;1301;22552;-81
2023/06/21 10:26:05;;;;;;;;;;;;;;;31.26;54.09;100139.72;130096;1289;22661;-84
2023/06/21 10:29:07;;;;;;;;;;;;;;;31.24;54.00;100133.55;130057;1298;25500;-85
2023/06/21 10:32:08;;;;;;;;;;;;;;;31.21;53.95;100134.99;130245;1291;22547;-85
2023/06/21 10:35:16;;;;;;;;;;;;;;;31.09;54.07;100131.02;130449;1290;22562;-83
2023/06/21 10:38:35;;;;;;;;;;;;;;;30.98;53.39;100129.04;130291;1298;25291;-85
2023/06/21 10:41:38;;;;;;;;;;;;;;;31.18;53.65;100136.77;130087;1292;22550;-83
2023/06/21 10:44:39;;;;;;;;;;;;;;;31.48;53.96;100138.10;130226;1295;22790;-84
2023/06/21 10:47:40;;;;;;;;;;;;;;;31.58;53.22;100141.18;130124;1290;22774;-85
2023/06/21 10:50:41;;;;;;;;;;;;;;;31.61;52.44;100142.30;130073;1292;25438;-86
2023/06/21 10:53:42;;;;;;;;;;;;;;;31.84;51.92;100140.02;130123;1292;22909;-86
2023/06/21 10:56:42;;;;;;;;;;;;;;;32.03;51.48;100135.52;130117;1298;25316;-84
2023/06/21 10:59:44;;;;;;;;;;;;;;;32.09;51.06;100130.91;130129;1295;24302;-84
2023/06/21 11:02:45;;;;;;;;;;;;;;;32.17;51.48;100126.84;130219;1292;22657;-83
2023/06/21 11:05:45;;;;;;;;;;;;;;;31.98;50.71;100128.80;130296;1297;25380;-84
2023/06/21 11:08:46;;;;;;;;;;;;;;;31.86;50.96;100127.36;130032;1292;25382;-84
2023/06/21 11:11:51;;;;;;;;;;;;;;;31.89;51.20;100124.42;130180;1291;22627;-83
2023/06/21 11:14:52;;;;;;;;;;;;;;;31.77;50.60;100121.14;130036;1298;22536;-85
2023/06/21 11:18:03;;;;;;;;;;;;;;;31.66;50.54;100124.07;130125;1293;22536;-83
2023/06/21 11:21:04;;;;;;;;;;;;;;;31.82;50.36;100121.90;130067;1296;24174;-83
2023/06/21 11:24:06;;;;;;;;;;;;;;;32.12;50.41;100116.41;130223;1289;22557;-86
2023/06/21 11:27:07;;;;;;;;;;;;;;;32.26;49.74;100111.90;130205;1289;22728;-83
2023/06/21 11:30:09;;;;;;;;;;;;;;;31.88;48.76;100109.76;130395;1293;24262;-84
2023/06/21 11:33:19;;;;;;;;;;;;;;;31.55;49.39;100103.35;130333;1289;26509;-85
2023/06/21 11:36:29;;;;;;;;;;;;;;;31.70;49.82;100103.20;130200;1290;25546;-84
2023/06/21 11:39:30;;;;;;;;;;;;;;;31.87;49.70;100105.71;130085;1290;22747;-85
2023/06/21 11:42:35;;;;;;;;;;;;;;;31.77;49.06;100103.91;130147;1290;22589;-84
2023/06/21 11:45:35;;;;;;;;;;;;;;;31.59;49.42;100100.41;130123;1292;22531;-85
2023/06/21 11:48:39;;;;;;;;;;;;;;;31.52;49.30;100097.50;130292;1294;22631;-85
2023/06/21 11:52:00;;;;;;;;;;;;;;;31.53;48.67;100101.70;130199;1298;24270;-84
2023/06/21 11:55:12;;;;;;;;;;;;;;;31.46;48.82;100102.66;129956;1296;25341;-84
2023/06/21 11:58:12;;;;;;;;;;;;;;;31.71;48.81;100102.33;130313;1294;25319;-85
2023/06/21 12:01:13;;;;;;;;;;;;;;;31.92;47.77;100103.96;130188;1298;23267;-85
2023/06/21 12:04:22;;;;;;;;;;;;;;;32.11;47.61;100096.12;130108;1291;24702;-82
2023/06/21 12:07:23;;;;;;;;;;;;;;;32.24;47.47;100093.17;130055;1289;22593;-82
2023/06/21 12:10:23;;;;;;;;;;;;;;;32.35;47.05;100091.64;130089;1294;22574;-81
2023/06/21 12:13:24;;;;;;;;;;;;;;;32.50;46.75;100087.70;130128;1290;22555;-82
2023/06/21 12:16:25;;;;;;;;;;;;;;;32.65;45.70;100083.33;130204;1297;22540;-83
2023/06/21 12:19:26;;;;;;;;;;;;;;;32.64;45.20;100084.42;130092;1298;22544;-83
2023/06/21 12:22:26;;;;;;;;;;;;;;;32.52;45.41;100085.68;130074;1292;24291;-85
2023/06/21 12:25:27;;;;;;;;;;;;;;;32.46;45.10;100080.77;130011;1291;23744;-83
2023/06/21 12:28:27;;;;;;;;;;;;;;;32.44;45.03;100081.09;130099;1294;24704;-82
2023/06/21 12:31:30;;;;;;;;;;;;;;;32.44;44.91;100076.42;130190;1298;22556;-84
2023/06/21 12:34:31;;;;;;;;;;;;;;;32.51;44.94;100083.34;130197;1292;22531;-85
2023/06/21 12:37:32;;;;;;;;;;;;;;;32.52;44.94;100087.94;130128;1298;22570;-82
2023/06/21 12:40:35;;;;;;;;;;;;;;;32.54;44.95;100087.40;130114;1291;22544;-85
2023/06/21 12:43:36;;;;;;;;;;;;;;;32.59;45.16;100078.38;130035;1294;22685;-84
2023/06/21 12:46:38;;;;;;;;;;;;;;;32.67;44.88;100081.02;130277;1291;25405;-85
2023/06/21 12:49:38;;;;;;;;;;;;;;;32.71;44.29;100081.02;130219;1298;22575;-83
2023/06/21 12:52:39;;;;;;;;;;;;;;;32.74;44.65;100079.85;130077;1291;25397;-81
2023/06/21 12:55:45;;;;;;;;;;;;;;;32.80;44.87;100080.61;130036;1297;24867;-85
2023/06/21 12:58:46;;;;;;;;;;;;;;;32.83;44.52;100088.33;130263;1298;25243;-84
2023/06/21 13:01:46;;;;;;;;;;;;;;;32.90;44.40;100097.83;130105;1298;24238;-83
2023/06/21 13:04:47;;;;;;;;;;;;;;;32.88;44.54;100097.73;130203;1290;22687;-84
2023/06/21 13:07:47;;;;;;;;;;;;;;;32.87;44.50;100098.91;130270;1298;25428;-82
2023/06/21 13:10:49;;;;;;;;;;;;;;;32.87;44.36;100098.55;130346;1289;25313;-84
2023/06/21 13:13:50;;;;;;;;;;;;;;;32.92;44.35;100100.45;130134;1298;25325;-83
2023/06/21 13:16:50;;;;;;;;;;;;;;;32.84;44.14;100100.66;130071;1291;22541;-82
2023/06/21 13:19:53;;;;;;;;;;;;;;;32.82;44.19;100094.67;130074;1298;22816;-82
2023/06/21 13:22:54;;;;;;;;;;;;;;;32.85;44.29;100087.36;130064;1291;22533;-84
2023/06/21 13:25:55;;;;;;;;;;;;;;;32.81;44.45;100083.50;130035;1298;25342;-83
2023/06/21 13:28:55;;;;;;;;;;;;;;;32.79;44.75;100084.98;129961;1292;22550;-84
2023/06/21 13:31:56;;;;;;;;;;;;;;;32.75;44.55;100085.08;130262;1298;25350;-84
2023/06/21 13:34:57;;;;;;;;;;;;;;;32.67;44.40;100080.58;130083;1294;22536;-82
2023/06/21 13:37:58;;;;;;;;;;;;;;;32.58;44.35;100073.61;130020;1291;25272;-83
2023/06/21 13:40:59;;;;;;;;;;;;;;;32.54;44.38;100073.89;130114;1297;22550;-84
2023/06/21 13:44:00;;;;;;;;;;;;;;;32.55;44.04;100068.46;129942;1291;22560;-82
2023/06/21 13:47:00;;;;;;;;;;;;;;;32.58;44.31;100064.29;130203;1298;22970;-84
2023/06/21 13:50:03;;;;;;;;;;;;;;;32.52;44.53;100057.63;130107;1298;22540;-82
2023/06/21 13:53:04;;;;;;;;;;;;;;;32.46;44.96;100055.58;130043;1289;22623;-85
2023/06/21 13:56:04;;;;;;;;;;;;;;;32.53;44.65;100059.90;130209;1292;24224;-83
2023/06/21 13:59:07;;;;;;;;;;;;;;;32.56;44.50;100059.04;130008;1291;24700;-84
2023/06/21 14:02:08;;;;;;;;;;;;;;;32.60;43.41;100055.36;130066;1294;23408;-85
2023/06/21 14:05:10;;;;;;;;;;;;;;;32.57;43.61;100054.85;130018;1298;24270;-84
2023/06/21 14:08:10;;;;;;;;;;;;;;;32.58;43.61;100061.15;130079;1298;22684;-82
2023/06/21 14:11:10;;;;;;;;;;;;;;;32.59;43.34;100057.27;130189;1291;24362;-84
2023/06/21 14:14:11;;;;;;;;;;;;;;;32.64;43.42;100055.88;130113;1291;22792;-85
2023/06/21 14:17:12;;;;;;;;;;;;;;;32.65;43.24;100055.14;130140;1298;25399;-84
2023/06/21 14:20:12;;;;;;;;;;;;;;;32.63;42.79;100052.90;130145;1291;25416;-84
2023/06/21 14:23:13;;;;;;;;;;;;;;;32.43;43.23;100048.22;130167;1299;25425;-81
2023/06/21 14:26:13;;;;;;;;;;;;;;;32.39;43.82;100048.65;130068;1292;22538;-84
2023/06/21 14:29:14;;;;;;;;;;;;;;;32.25;43.65;100044.79;129914;1294;23651;-85
2023/06/21 14:32:15;;;;;;;;;;;;;;;32.11;43.96;100048.64;130121;1292;22695;-83
2023/06/21 14:35:15;;;;;;;;;;;;;;;32.07;43.91;100045.89;130071;1298;23912;-83
2023/06/21 14:38:16;;;;;;;;;;;;;;;32.14;44.08;100047.65;130103;1298;22539;-85
2023/06/21 14:41:16;;;;;;;;;;;;;;;32.15;43.87;100042.61;130192;1291;24303;-82
2023/06/21 14:44:17;;;;;;;;;;;;;;;32.17;43.95;100032.48;129962;1295;24271;-85
2023/06/21 14:47:17;;;;;;;;;;;;;;;32.14;43.98;100028.24;130057;1300;25359;-83
2023/06/21 14:50:19;;;;;;;;;;;;;;;32.03;44.08;100036.38;129959;1295;24238;-82
2023/06/21 14:53:20;;;;;;;;;;;;;;;32.01;43.93;100037.55;130086;1291;22856;-84
2023/06/21 14:56:21;;;;;;;;;;;;;;;31.98;44.15;100034.20;130144;1294;22533;-80
2023/06/21 14:59:21;;;;;;;;;;;;;;;31.93;44.40;100034.39;130281;1291;25351;-87
2023/06/21 15:02:37;;;;;;;;;;;;;;;31.95;44.48;100039.12;130412;1292;22533;-87
2023/06/21 15:05:42;;;;;;;;;;;;;;;31.87;44.33;100038.55;129905;1299;22552;-88
2023/06/21 15:08:43;;;;;;;;;;;;;;;31.75;44.28;100043.00;130353;1301;22636;-89
2023/06/21 15:11:44;;;;;;;;;;;;;;;31.69;44.31;100044.46;130219;1297;25249;-87
2023/06/21 15:14:46;;;;;;;;;;;;;;;31.69;44.13;100046.81;130274;1294;22574;-88
2023/06/21 15:17:48;;;;;;;;;;;;;;;31.57;43.41;100050.59;130469;1298;24301;-89
2023/06/21 15:20:49;;;;;;;;;;;;;;;31.33;43.19;100051.40;129940;1298;22544;-86
2023/06/21 15:23:50;;;;;;;;;;;;;;;31.16;43.19;100043.52;130226;1298;22555;-87
2023/06/21 15:26:53;;;;;;;;;;;;;;;31.09;43.35;100039.05;129796;1297;24305;-89
2023/06/21 15:29:54;;;;;;;;;;;;;;;31.11;43.43;100043.39;129742;1298;25503;-86